Time;durP1;ratioP1;P1;durP2;ratioP2;P2;SDS_P1;SDS_P2;PMS_P1;PMS_P2;Temp;Humidity;BMP_temperature;BMP_pressure;BME280_temperature;BME280_humidity;BME280_pressure;Samples;Min_cycle;Max_cycle;Signal;HPM_P1;HPM_P2
2021/01/05 00:00:12;;;;;;;9.95;4.13;;;0.90;99.90;;;;;;5050258;28;20048;-77
2021/01/05 00:02:38;;;;;;;10.35;4.35;;;0.90;99.90;;;;;;5056447;28;20052;-77
2021/01/05 00:05:06;;;;;;;6.25;3.97;;;0.90;99.90;;;;;;5065171;28;20032;-77
2021/01/05 00:07:32;;;;;;;11.23;4.53;;;0.90;99.90;;;;;;5060381;28;20119;-76
2021/01/05 00:09:58;;;;;;;8.65;4.50;;;0.90;99.90;;;;;;5056495;28;20140;-76
2021/01/05 00:12:23;;;;;;;8.15;4.32;;;0.90;99.90;;;;;;5049986;28;20025;-76
2021/01/05 00:14:49;;;;;;;9.13;4.47;;;0.90;99.90;;;;;;5049482;28;20068;-76
2021/01/05 00:17:18;;;;;;;10.00;4.45;;;0.90;99.90;;;;;;5049600;28;20033;-76
2021/01/05 00:19:47;;;;;;;8.98;4.60;;;0.90;99.90;;;;;;5049483;28;20075;-76
2021/01/05 00:22:14;;;;;;;10.73;4.93;;;0.90;99.90;;;;;;5032742;28;20557;-78
2021/01/05 00:24:40;;;;;;;8.05;4.55;;;0.90;99.90;;;;;;5033078;28;20079;-76
2021/01/05 00:27:06;;;;;;;6.93;3.72;;;0.90;99.90;;;;;;5050150;28;20028;-76
2021/01/05 00:29:32;;;;;;;7.57;4.32;;;0.90;99.90;;;;;;5031885;28;20048;-76
2021/01/05 00:32:05;;;;;;;9.50;4.82;;;0.90;99.90;;;;;;5048799;28;20035;-76
2021/01/05 00:34:32;;;;;;;9.40;4.43;;;0.90;99.90;;;;;;5059126;28;20644;-76
2021/01/05 00:36:58;;;;;;;8.63;4.40;;;0.90;99.90;;;;;;5068957;28;20016;-77
2021/01/05 00:39:24;;;;;;;7.25;4.40;;;0.90;99.90;;;;;;5068235;28;20525;-77
2021/01/05 00:41:49;;;;;;;8.35;4.40;;;0.90;99.90;;;;;;5069117;28;20036;-77
2021/01/05 00:44:15;;;;;;;7.88;4.35;;;0.90;99.90;;;;;;5070043;28;20024;-77
2021/01/05 00:46:41;;;;;;;11.50;4.97;;;0.90;99.90;;;;;;5069271;28;20048;-77
2021/01/05 00:49:07;;;;;;;8.13;4.22;;;0.90;99.90;;;;;;5069360;28;20076;-77
2021/01/05 00:51:33;;;;;;;9.35;4.65;;;0.90;99.90;;;;;;5067498;28;20060;-79
2021/01/05 00:53:59;;;;;;;7.53;3.85;;;0.90;99.90;;;;;;5063646;28;20035;-79
2021/01/05 00:56:25;;;;;;;9.43;4.53;;;0.90;99.90;;;;;;5070028;28;20020;-76
2021/01/05 00:58:51;;;;;;;10.57;5.35;;;0.90;99.90;;;;;;5051886;28;20087;-78
2021/01/05 01:01:20;;;;;;;10.98;4.68;;;1.00;99.90;;;;;;5052288;28;20024;-77
2021/01/05 01:03:48;;;;;;;9.80;4.57;;;0.90;99.90;;;;;;5068644;28;20114;-77
2021/01/05 01:06:15;;;;;;;7.88;5.20;;;0.90;99.90;;;;;;5035618;28;20170;-76
2021/01/05 01:08:41;;;;;;;7.32;4.00;;;0.90;99.90;;;;;;5051556;28;20149;-76
2021/01/05 01:11:06;;;;;;;8.85;4.57;;;0.90;99.90;;;;;;5068623;28;20556;-76
2021/01/05 01:13:33;;;;;;;9.05;4.38;;;1.00;99.90;;;;;;5051746;28;20494;-76
2021/01/05 01:15:59;;;;;;;9.95;4.47;;;0.90;99.90;;;;;;5068754;28;20041;-76
2021/01/05 01:18:25;;;;;;;6.65;3.78;;;0.90;99.90;;;;;;5048483;28;20033;-76
2021/01/05 01:20:51;;;;;;;9.38;4.95;;;0.90;99.90;;;;;;5049151;28;20147;-76
2021/01/05 01:23:23;;;;;;;6.82;3.75;;;0.90;99.90;;;;;;5048118;28;20037;-76
2021/01/05 01:25:51;;;;;;;7.93;3.85;;;1.00;99.90;;;;;;5049005;28;20036;-76
2021/01/05 01:28:18;;;;;;;6.28;3.70;;;0.90;99.90;;;;;;5048486;28;20041;-75
2021/01/05 01:30:47;;;;;;;6.18;3.97;;;1.00;99.90;;;;;;5049708;28;20040;-77
2021/01/05 01:33:14;;;;;;;5.88;3.40;;;1.00;99.90;;;;;;5055731;28;20147;-76
2021/01/05 01:35:40;;;;;;;9.10;4.30;;;1.00;99.90;;;;;;5052157;28;20088;-77
2021/01/05 01:38:10;;;;;;;6.32;3.90;;;1.00;99.90;;;;;;5053579;28;20036;-77
2021/01/05 01:40:44;;;;;;;7.18;4.07;;;1.00;99.90;;;;;;5041145;28;20051;-76
2021/01/05 01:43:18;;;;;;;7.47;4.10;;;0.90;99.90;;;;;;5071558;28;20040;-76
2021/01/05 01:45:45;;;;;;;8.90;4.05;;;0.90;99.90;;;;;;5072436;28;20040;-77
2021/01/05 01:48:17;;;;;;;7.13;3.97;;;0.90;99.90;;;;;;5055684;28;20716;-76
2021/01/05 01:50:48;;;;;;;9.48;3.90;;;0.90;99.90;;;;;;5051879;28;20513;-76
2021/01/05 01:53:51;;;;;;;7.65;3.97;;;0.90;99.90;;;;;;5051664;28;20120;-76
2021/01/05 01:56:42;;;;;;;8.27;3.97;;;1.00;99.90;;;;;;5052306;28;20029;-77
2021/01/05 01:59:42;;;;;;;6.90;3.75;;;1.00;99.90;;;;;;5037054;28;20037;-76
2021/01/05 02:02:26;;;;;;;6.40;3.72;;;0.90;99.90;;;;;;5051348;28;20017;-76
2021/01/05 02:05:16;;;;;;;6.97;4.00;;;1.00;99.90;;;;;;5051554;28;20032;-76
2021/01/05 02:07:49;;;;;;;5.90;3.35;;;1.00;99.90;;;;;;5051892;28;20155;-76
2021/01/05 02:10:34;;;;;;;5.70;3.40;;;1.00;99.90;;;;;;5050741;28;20025;-76
2021/01/05 02:13:22;;;;;;;8.25;3.90;;;1.00;99.90;;;;;;5050994;28;20064;-76
2021/01/05 02:16:21;;;;;;;5.95;3.83;;;1.00;99.90;;;;;;5051446;28;20029;-76
2021/01/05 02:18:51;;;;;;;7.05;3.45;;;1.00;99.90;;;;;;5050949;28;20043;-76
2021/01/05 02:21:23;;;;;;;5.85;3.33;;;1.00;99.90;;;;;;5051437;28;20147;-76
2021/01/05 02:23:53;;;;;;;7.18;3.28;;;1.00;99.90;;;;;;5050922;28;20120;-76
2021/01/05 02:26:34;;;;;;;6.07;3.58;;;1.00;99.90;;;;;;5051241;28;20094;-77
2021/01/05 02:29:07;;;;;;;7.45;3.88;;;1.00;99.90;;;;;;5050515;28;20394;-76
2021/01/05 02:32:24;;;;;;;6.28;3.40;;;1.00;99.90;;;;;;5035092;28;20128;-76
2021/01/05 02:35:09;;;;;;;7.30;3.53;;;1.00;99.90;;;;;;5064639;28;20076;-76
2021/01/05 02:38:50;;;;;;;6.57;3.30;;;1.00;99.90;;;;;;5048568;28;20033;-76
2021/01/05 02:41:56;;;;;;;8.30;3.50;;;1.00;99.90;;;;;;5051663;28;20039;-76
2021/01/05 02:45:02;;;;;;;6.10;3.20;;;0.90;99.90;;;;;;5052415;28;20159;-76
2021/01/05 02:48:05;;;;;;;6.50;3.75;;;0.90;99.90;;;;;;5052541;28;20044;-76
2021/01/05 02:51:30;;;;;;;4.55;2.95;;;0.90;99.90;;;;;;5051984;28;20090;-77
2021/01/05 02:54:32;;;;;;;8.23;3.53;;;0.90;99.90;;;;;;5050580;28;20040;-76
2021/01/05 02:57:29;;;;;;;6.03;3.08;;;0.90;99.90;;;;;;5051986;28;20551;-76
2021/01/05 03:00:25;;;;;;;;;;;0.90;99.90;;;;;;5051850;28;20521;-76
2021/01/05 03:03:40;;;;;;;7.63;3.45;;;0.90;99.90;;;;;;5059711;28;19958;-76
2021/01/05 03:06:30;;;;;;;6.00;2.35;;;1.00;99.90;;;;;;5071892;28;20109;-77
2021/01/05 03:09:39;;;;;;;5.50;3.05;;;0.90;99.90;;;;;;5070883;28;20098;-77
2021/01/05 03:12:35;;;;;;;8.23;2.95;;;1.00;99.90;;;;;;5051071;28;20158;-76
2021/01/05 03:15:25;;;;;;;6.13;3.15;;;1.00;99.90;;;;;;5051918;28;20086;-76
2021/01/05 03:18:25;;;;;;;5.50;3.33;;;0.90;99.90;;;;;;5051667;28;20147;-77
2021/01/05 03:21:21;;;;;;;6.28;2.72;;;1.00;99.90;;;;;;5073663;28;20521;-76
2021/01/05 03:24:07;;;;;;;6.38;2.92;;;1.00;99.90;;;;;;5070993;28;20039;-76
2021/01/05 03:26:52;;;;;;;5.97;3.20;;;1.00;99.90;;;;;;5071459;28;20089;-76
2021/01/05 03:30:01;;;;;;;4.68;3.28;;;0.90;99.90;;;;;;5028091;28;20029;-75
2021/01/05 03:32:45;;;;;;;5.75;2.80;;;0.90;99.90;;;;;;5028507;28;20055;-76
2021/01/05 03:35:29;;;;;;;4.00;2.67;;;0.90;99.90;;;;;;5034684;28;20052;-76
2021/01/05 03:38:14;;;;;;;4.90;3.00;;;1.00;99.90;;;;;;5050912;28;20052;-77
2021/01/05 03:40:58;;;;;;;5.82;3.28;;;1.00;99.90;;;;;;5036309;28;20435;-76
2021/01/05 03:43:43;;;;;;;5.10;2.58;;;1.00;99.90;;;;;;5069899;28;20074;-76
2021/01/05 03:46:29;;;;;;;4.13;2.70;;;1.00;99.90;;;;;;5070993;28;20081;-76
2021/01/05 03:49:13;;;;;;;7.75;3.20;;;0.90;99.90;;;;;;5069125;28;20147;-76
2021/01/05 03:51:57;;;;;;;4.28;2.97;;;0.90;99.90;;;;;;5070391;28;20060;-77
2021/01/05 03:54:41;;;;;;;6.72;2.92;;;1.00;99.90;;;;;;5070852;28;20067;-77
2021/01/05 03:57:25;;;;;;;4.78;2.70;;;0.90;99.90;;;;;;5070130;28;20063;-75
2021/01/05 04:00:30;;;;;;;4.63;3.08;;;1.00;99.90;;;;;;5016274;28;20548;-78
2021/01/05 04:03:00;;;;;;;5.55;3.05;;;1.00;99.90;;;;;;5027704;28;20074;-77
2021/01/05 04:05:27;;;;;;;4.88;3.10;;;1.00;99.90;;;;;;5049454;28;20117;-77
2021/01/05 04:07:54;;;;;;;6.68;3.13;;;1.00;99.90;;;;;;5070657;28;20024;-76
2021/01/05 04:10:20;;;;;;;6.03;3.00;;;1.00;99.90;;;;;;5069803;28;20070;-76
2021/01/05 04:12:46;;;;;;;3.63;2.58;;;1.00;99.90;;;;;;5068828;28;20056;-76
2021/01/05 04:15:19;;;;;;;5.43;2.55;;;0.90;99.90;;;;;;5070608;28;20740;-78
2021/01/05 04:17:45;;;;;;;5.15;2.70;;;0.90;99.90;;;;;;5052920;28;20459;-76
2021/01/05 04:20:12;;;;;;;7.82;3.10;;;0.90;99.90;;;;;;5068577;28;20115;-77
2021/01/05 04:22:37;;;;;;;6.05;3.53;;;0.90;99.90;;;;;;5052599;28;20028;-76
2021/01/05 04:25:05;;;;;;;6.60;3.15;;;0.90;99.90;;;;;;5069949;28;20463;-77
2021/01/05 04:27:30;;;;;;;5.72;2.95;;;1.00;99.90;;;;;;5070925;28;20509;-76
2021/01/05 04:29:56;;;;;;;5.95;3.28;;;0.90;99.90;;;;;;5051913;28;20036;-76
2021/01/05 04:32:22;;;;;;;5.40;3.38;;;1.00;99.90;;;;;;5068823;28;20040;-78
2021/01/05 04:34:47;;;;;;;4.03;2.83;;;1.00;99.90;;;;;;5070715;28;20376;-76
2021/01/05 04:37:13;;;;;;;5.18;3.20;;;1.00;99.90;;;;;;5069466;28;20035;-78
2021/01/05 04:39:39;;;;;;;6.05;2.72;;;1.00;99.90;;;;;;5052023;28;20552;-78
2021/01/05 04:42:29;;;;;;;6.40;3.30;;;0.90;99.90;;;;;;5065695;28;20051;-76
2021/01/05 04:45:01;;;;;;;5.18;3.22;;;1.00;99.90;;;;;;5051188;28;20025;-77
2021/01/05 04:47:52;;;;;;;6.78;3.20;;;0.90;99.90;;;;;;5050795;28;20029;-78
2021/01/05 04:50:54;;;;;;;7.75;3.10;;;0.90;99.90;;;;;;5060714;28;20111;-76
2021/01/05 04:53:31;;;;;;;6.47;2.95;;;1.00;99.90;;;;;;5055799;28;20060;-77
2021/01/05 04:56:09;;;;;;;4.28;2.67;;;1.00;99.90;;;;;;5070555;28;20104;-77
2021/01/05 04:58:50;;;;;;;5.07;3.00;;;1.00;99.90;;;;;;5068517;28;20116;-76
2021/01/05 05:01:28;;;;;;;4.00;2.22;;;1.00;99.90;;;;;;5069184;28;20020;-77
2021/01/05 05:04:21;;;;;;;7.97;2.92;;;1.00;99.90;;;;;;5069959;28;20561;-76
2021/01/05 05:07:01;;;;;;;5.32;2.72;;;0.90;99.90;;;;;;5081077;28;20034;-76
2021/01/05 05:09:37;;;;;;;5.60;3.20;;;0.90;99.90;;;;;;5062322;28;20036;-76
2021/01/05 05:12:32;;;;;;;6.07;3.03;;;0.90;99.90;;;;;;5050163;28;20025;-76
2021/01/05 05:15:18;;;;;;;4.55;2.88;;;1.00;99.90;;;;;;5050691;28;20678;-76
2021/01/05 05:18:02;;;;;;;;;;;1.00;99.90;;;;;;5063968;28;20040;-76
2021/01/05 05:21:09;;;;;;;6.20;2.45;;;1.00;99.90;;;;;;5073812;28;19938;-77
2021/01/05 05:23:53;;;;;;;;;;;1.00;99.90;;;;;;5073051;28;20025;-76
2021/01/05 05:26:25;;;;;;;5.90;2.53;;;1.00;99.90;;;;;;5073455;28;19917;-77
2021/01/05 05:29:03;;;;;;;4.70;3.05;;;1.00;99.90;;;;;;5055122;28;20037;-77
2021/01/05 05:31:32;;;;;;;5.32;2.78;;;1.00;99.90;;;;;;5072740;28;20033;-77
2021/01/05 05:34:07;;;;;;;5.72;2.72;;;0.90;99.90;;;;;;5073535;28;20093;-77
2021/01/05 05:36:49;;;;;;;;;;;0.90;99.90;;;;;;5073053;28;20479;-77
2021/01/05 05:39:47;;;;;;;5.15;2.60;;;0.90;99.90;;;;;;5073156;28;19916;-77
2021/01/05 05:42:50;;;;;;;4.10;2.55;;;0.90;99.90;;;;;;5068410;28;20057;-76
2021/01/05 05:45:31;;;;;;;5.13;2.95;;;0.90;99.90;;;;;;5052341;28;20032;-76
2021/01/05 05:48:08;;;;;;;4.65;2.63;;;0.90;99.90;;;;;;5052623;28;20088;-76
2021/01/05 05:50:43;;;;;;;4.38;2.65;;;1.00;99.90;;;;;;5053137;28;20387;-76
2021/01/05 05:53:17;;;;;;;6.10;2.60;;;0.90;99.90;;;;;;5052840;28;20162;-76
2021/01/05 05:55:52;;;;;;;6.25;3.10;;;0.90;99.90;;;;;;5053722;28;20029;-76
2021/01/05 05:58:21;;;;;;;3.83;2.08;;;0.90;99.90;;;;;;5051591;28;20029;-77
2021/01/05 06:00:51;;;;;;;5.38;3.03;;;1.00;99.90;;;;;;5053063;28;20033;-76
2021/01/05 06:03:19;;;;;;;4.72;2.85;;;0.90;99.90;;;;;;5062492;28;20505;-76
2021/01/05 06:05:45;;;;;;;4.28;2.30;;;1.00;99.90;;;;;;5072445;28;20596;-76
2021/01/05 06:08:14;;;;;;;4.93;2.55;;;0.90;99.90;;;;;;5073127;28;20068;-77
2021/01/05 06:10:39;;;;;;;3.55;2.50;;;1.00;99.90;;;;;;5073471;28;20040;-77
2021/01/05 06:13:05;;;;;;;3.80;2.35;;;0.90;99.90;;;;;;5072651;28;20471;-76
2021/01/05 06:15:34;;;;;;;3.55;2.40;;;1.00;99.90;;;;;;5072162;28;20085;-77
2021/01/05 06:18:02;;;;;;;4.07;2.42;;;1.00;99.90;;;;;;5068530;28;20037;-77
2021/01/05 06:20:28;;;;;;;4.32;2.35;;;1.00;99.90;;;;;;5071310;28;20397;-76
2021/01/05 06:22:54;;;;;;;3.00;2.05;;;1.00;99.90;;;;;;5054456;28;20032;-76
2021/01/05 06:25:20;;;;;;;6.10;3.38;;;1.00;99.90;;;;;;5073187;28;20048;-77
2021/01/05 06:27:46;;;;;;;6.18;3.10;;;1.00;99.90;;;;;;5073001;28;20040;-77
2021/01/05 06:30:12;;;;;;;6.22;2.50;;;1.00;99.90;;;;;;5065897;28;20021;-77
2021/01/05 06:32:38;;;;;;;5.25;2.92;;;1.00;99.90;;;;;;5083012;28;20040;-77
2021/01/05 06:35:05;;;;;;;3.67;2.30;;;1.00;99.90;;;;;;5093149;28;20025;-77
2021/01/05 06:37:31;;;;;;;4.72;2.40;;;1.00;99.90;;;;;;5068162;28;20025;-76
2021/01/05 06:39:56;;;;;;;5.35;2.20;;;1.00;99.90;;;;;;5052944;28;20032;-76
2021/01/05 06:42:22;;;;;;;3.78;1.90;;;1.00;99.90;;;;;;5062442;28;20395;-77
2021/01/05 06:44:48;;;;;;;4.75;2.70;;;1.00;99.90;;;;;;5055570;28;20017;-77
2021/01/05 06:47:14;;;;;;;5.45;2.80;;;1.00;99.90;;;;;;5052790;28;20033;-77
2021/01/05 06:49:40;;;;;;;4.15;2.42;;;1.00;99.90;;;;;;5061998;28;20029;-77
2021/01/05 06:52:05;;;;;;;5.18;2.38;;;1.00;99.90;;;;;;5071916;28;20024;-77
2021/01/05 06:54:32;;;;;;;5.07;2.22;;;1.00;99.90;;;;;;5068926;28;20078;-76
2021/01/05 06:56:58;;;;;;;4.05;2.30;;;1.00;99.90;;;;;;5071387;28;20028;-76
2021/01/05 06:59:24;;;;;;;4.78;2.63;;;0.90;99.90;;;;;;5070295;28;20422;-76
2021/01/05 07:01:57;;;;;;;4.32;2.42;;;0.90;99.90;;;;;;5071055;28;20055;-77
2021/01/05 07:04:24;;;;;;;4.22;2.35;;;0.90;99.90;;;;;;5071258;28;20085;-77
2021/01/05 07:06:50;;;;;;;3.08;1.92;;;1.00;99.90;;;;;;5054555;28;20479;-77
2021/01/05 07:09:18;;;;;;;4.25;2.08;;;1.00;99.90;;;;;;5053254;28;20446;-77
2021/01/05 07:11:44;;;;;;;5.30;2.45;;;0.90;99.90;;;;;;5053860;28;20478;-77
2021/01/05 07:14:14;;;;;;;3.33;2.00;;;0.90;99.90;;;;;;5070165;28;20037;-77
2021/01/05 07:16:40;;;;;;;2.75;2.30;;;0.90;99.90;;;;;;5071956;28;20029;-77
2021/01/05 07:19:06;;;;;;;5.72;2.35;;;0.90;99.90;;;;;;5053101;28;20487;-77
2021/01/05 07:21:32;;;;;;;2.88;2.03;;;1.00;99.90;;;;;;5060325;28;20033;-77
2021/01/05 07:23:57;;;;;;;5.53;2.50;;;1.00;99.90;;;;;;5050304;28;20416;-76
2021/01/05 07:26:23;;;;;;;5.10;2.42;;;1.00;99.90;;;;;;5053568;28;20097;-76
2021/01/05 07:28:49;;;;;;;3.38;2.25;;;1.00;99.90;;;;;;5052687;28;20043;-78
2021/01/05 07:31:15;;;;;;;4.47;2.50;;;1.00;99.90;;;;;;5067165;28;20036;-76
2021/01/05 07:33:40;;;;;;;2.83;1.92;;;1.00;99.90;;;;;;5078796;28;20024;-77
2021/01/05 07:36:35;;;;;;;4.85;2.05;;;1.00;99.90;;;;;;5078957;28;20032;-77
2021/01/05 07:39:10;;;;;;;3.42;2.10;;;1.00;99.90;;;;;;5079601;28;20028;-76
2021/01/05 07:41:36;;;;;;;4.20;2.30;;;1.00;99.90;;;;;;5064424;28;20055;-77
2021/01/05 07:44:03;;;;;;;6.13;2.33;;;1.00;99.90;;;;;;5051186;28;20091;-77
2021/01/05 07:46:28;;;;;;;4.47;2.78;;;1.00;99.90;;;;;;5033949;28;20094;-77
2021/01/05 07:48:54;;;;;;;5.50;2.35;;;1.00;99.90;;;;;;5049820;28;20112;-77
2021/01/05 07:51:20;;;;;;;3.42;2.58;;;1.00;99.90;;;;;;5068576;28;20025;-77
2021/01/05 07:53:45;;;;;;;5.70;2.50;;;1.00;99.90;;;;;;5069410;28;20530;-76
2021/01/05 07:56:11;;;;;;;5.60;2.53;;;1.00;99.90;;;;;;5071550;28;20024;-77
2021/01/05 07:58:37;;;;;;;3.80;2.40;;;1.10;99.90;;;;;;5068325;28;20382;-77
2021/01/05 08:01:02;;;;;;;3.38;2.15;;;1.00;99.90;;;;;;5067765;28;20037;-77
2021/01/05 08:03:28;;;;;;;4.88;2.70;;;1.00;99.90;;;;;;5060780;28;20041;-77
2021/01/05 08:05:54;;;;;;;4.82;2.60;;;1.00;99.90;;;;;;5061793;28;20552;-77
2021/01/05 08:08:19;;;;;;;4.28;2.75;;;1.00;99.90;;;;;;5056094;28;20451;-77
2021/01/05 08:10:45;;;;;;;5.20;2.65;;;1.10;99.90;;;;;;5055142;28;20637;-77
2021/01/05 08:13:12;;;;;;;6.05;2.78;;;1.10;99.90;;;;;;5067917;28;20068;-77
2021/01/05 08:15:38;;;;;;;4.38;3.00;;;1.00;99.90;;;;;;5071103;28;20024;-77
2021/01/05 08:18:06;;;;;;;7.68;3.15;;;1.10;99.90;;;;;;5056874;28;20024;-77
2021/01/05 08:20:33;;;;;;;6.20;2.85;;;1.00;99.90;;;;;;5064778;28;20044;-77
2021/01/05 08:23:00;;;;;;;5.13;2.78;;;1.10;99.90;;;;;;5060976;28;20109;-77
2021/01/05 08:25:26;;;;;;;4.90;2.83;;;1.10;99.90;;;;;;5063903;28;20411;-77
2021/01/05 08:27:53;;;;;;;5.13;2.65;;;1.10;99.90;;;;;;5040226;28;20047;-77
2021/01/05 08:30:22;;;;;;;5.63;3.40;;;1.10;99.90;;;;;;5059416;28;20032;-77
2021/01/05 08:32:48;;;;;;;5.47;3.10;;;1.10;99.90;;;;;;5058200;28;20025;-77
2021/01/05 08:35:17;;;;;;;4.18;2.72;;;1.10;99.90;;;;;;5057993;28;20360;-77
2021/01/05 08:37:42;;;;;;;7.60;2.83;;;1.10;99.90;;;;;;5072375;28;20025;-77
2021/01/05 08:40:13;;;;;;;5.95;2.95;;;1.10;99.90;;;;;;5021300;28;20036;-77
2021/01/05 08:42:38;;;;;;;5.93;3.30;;;1.10;99.90;;;;;;5068856;28;20027;-77
2021/01/05 08:45:05;;;;;;;5.70;3.25;;;1.20;99.90;;;;;;5063406;28;20025;-77
2021/01/05 08:47:31;;;;;;;5.85;3.20;;;1.20;99.90;;;;;;5052333;28;20372;-75
2021/01/05 08:49:57;;;;;;;6.35;2.60;;;1.20;99.90;;;;;;5058808;28;20035;-76
2021/01/05 08:52:22;;;;;;;6.40;2.85;;;1.30;99.90;;;;;;5084971;28;20390;-76
2021/01/05 08:54:48;;;;;;;5.38;2.58;;;1.30;99.90;;;;;;5032237;28;20080;-76
2021/01/05 08:57:15;;;;;;;5.20;2.90;;;1.30;99.90;;;;;;5032296;28;20037;-77
2021/01/05 08:59:45;;;;;;;6.13;2.90;;;1.30;99.90;;;;;;5048308;28;20676;-76
2021/01/05 09:02:10;;;;;;;5.65;2.58;;;1.30;99.90;;;;;;5048614;28;20071;-76
2021/01/05 09:04:36;;;;;;;5.80;3.05;;;1.30;99.90;;;;;;5056601;28;20037;-76
2021/01/05 09:07:02;;;;;;;6.65;3.00;;;1.40;99.90;;;;;;5081425;28;20025;-77
2021/01/05 09:09:28;;;;;;;5.88;3.35;;;1.40;99.90;;;;;;5052100;28;20491;-77
2021/01/05 09:11:56;;;;;;;4.13;2.85;;;1.50;99.90;;;;;;5063413;28;20079;-76
2021/01/05 09:14:22;;;;;;;5.05;3.08;;;1.50;99.90;;;;;;5061544;28;20033;-76
2021/01/05 09:16:48;;;;;;;5.95;3.20;;;1.50;99.90;;;;;;5064357;28;20029;-76
2021/01/05 09:19:15;;;;;;;5.88;3.28;;;1.50;99.90;;;;;;5065055;28;20403;-76
2021/01/05 09:21:46;;;;;;;5.47;3.13;;;1.60;99.90;;;;;;5071411;28;20439;-77
2021/01/05 09:24:12;;;;;;;4.97;2.63;;;1.60;99.90;;;;;;5064730;28;20103;-77
2021/01/05 09:26:37;;;;;;;6.45;3.30;;;1.60;99.90;;;;;;5061771;28;20478;-76
2021/01/05 09:29:05;;;;;;;5.80;3.25;;;1.70;99.90;;;;;;5067429;28;20024;-76
2021/01/05 09:31:31;;;;;;;6.70;3.50;;;1.70;99.90;;;;;;5069661;28;20053;-76
2021/01/05 09:34:00;;;;;;;6.30;3.45;;;1.80;99.90;;;;;;5065291;28;20083;-76
2021/01/05 09:36:33;;;;;;;7.32;3.88;;;1.90;99.90;;;;;;5060781;28;20024;-77
2021/01/05 09:39:00;;;;;;;6.88;3.60;;;1.90;99.90;;;;;;5058942;28;20379;-77
2021/01/05 09:41:30;;;;;;;6.93;3.58;;;2.00;99.90;;;;;;5065700;28;20029;-76
2021/01/05 09:43:55;;;;;;;9.90;4.38;;;2.10;99.90;;;;;;5055544;28;20032;-77
2021/01/05 09:46:22;;;;;;;10.18;3.90;;;2.10;99.90;;;;;;5067239;28;20025;-78
2021/01/05 09:48:49;;;;;;;9.00;4.60;;;2.20;99.90;;;;;;5068068;28;20017;-77
2021/01/05 09:51:23;;;;;;;7.65;4.18;;;2.30;99.90;;;;;;5046187;28;20031;-77
2021/01/05 09:53:49;;;;;;;9.35;4.30;;;2.20;99.90;;;;;;5059275;28;20056;-77
2021/01/05 09:56:15;;;;;;;7.95;4.35;;;2.20;99.90;;;;;;5067071;28;20056;-77
2021/01/05 09:58:41;;;;;;;7.63;4.05;;;2.20;99.90;;;;;;5068366;28;20063;-77
2021/01/05 10:01:07;;;;;;;7.00;3.60;;;2.20;99.90;;;;;;5075878;28;20024;-77
2021/01/05 10:03:33;;;;;;;7.65;4.43;;;2.20;99.90;;;;;;5062960;28;20490;-78
2021/01/05 10:05:58;;;;;;;7.55;4.30;;;2.20;99.90;;;;;;5064398;28;20028;-77
2021/01/05 10:08:24;;;;;;;12.45;5.40;;;2.20;99.90;;;;;;5067990;28;20459;-77
2021/01/05 10:10:50;;;;;;;10.88;4.30;;;2.10;99.90;;;;;;5067552;28;20613;-77
2021/01/05 10:13:16;;;;;;;10.18;4.88;;;2.10;99.90;;;;;;5071244;28;20123;-77
2021/01/05 10:15:41;;;;;;;10.25;4.82;;;2.10;99.90;;;;;;5060011;28;20044;-77
2021/01/05 10:18:07;;;;;;;10.30;4.70;;;2.10;99.90;;;;;;5068574;28;20025;-78
2021/01/05 10:20:33;;;;;;;9.35;4.60;;;2.10;99.90;;;;;;5064742;28;20525;-79
2021/01/05 10:22:59;;;;;;;9.43;5.20;;;2.20;99.90;;;;;;5066344;28;20383;-79
2021/01/05 10:25:24;;;;;;;9.68;5.07;;;2.30;99.90;;;;;;5066621;28;20059;-79
2021/01/05 10:27:50;;;;;;;9.93;4.85;;;2.30;99.90;;;;;;5050388;28;20379;-80
2021/01/05 10:30:17;;;;;;;8.57;4.80;;;2.40;99.90;;;;;;5051034;28;20540;-79
2021/01/05 10:32:44;;;;;;;8.57;4.43;;;2.50;99.90;;;;;;5067871;28;20040;-80
2021/01/05 10:35:16;;;;;;;9.55;4.30;;;2.60;99.90;;;;;;5058045;28;20738;-79
2021/01/05 10:37:44;;;;;;;10.27;4.82;;;2.60;99.90;;;;;;5059745;28;20526;-79
2021/01/05 10:40:11;;;;;;;7.65;4.07;;;2.70;99.90;;;;;;5062407;28;20124;-79
2021/01/05 10:42:48;;;;;;;7.72;4.38;;;2.80;99.90;;;;;;5062110;28;20033;-81
2021/01/05 10:45:19;;;;;;;10.88;4.88;;;3.00;99.90;;;;;;5063302;28;20025;-80
2021/01/05 10:47:45;;;;;;;8.70;4.40;;;3.10;99.90;;;;;;5078370;28;20017;-81
2021/01/05 10:50:13;;;;;;;9.32;4.43;;;3.10;99.90;;;;;;5033579;28;20039;-81
2021/01/05 10:52:39;;;;;;;10.70;5.10;;;3.10;99.90;;;;;;5052881;28;20029;-80
2021/01/05 10:55:06;;;;;;;8.95;4.32;;;3.20;99.90;;;;;;5033612;28;20024;-79
2021/01/05 10:57:32;;;;;;;8.10;4.63;;;3.20;99.90;;;;;;5070320;28;20032;-79
2021/01/05 10:59:58;;;;;;;8.38;4.78;;;3.30;99.90;;;;;;5053323;28;20383;-80
2021/01/05 11:02:24;;;;;;;7.75;4.32;;;3.30;99.90;;;;;;5059090;28;20437;-81
2021/01/05 11:04:50;;;;;;;8.80;4.65;;;3.20;99.90;;;;;;5077993;28;20039;-80
2021/01/05 11:07:16;;;;;;;8.82;4.68;;;3.20;99.90;;;;;;5093236;28;20028;-80
2021/01/05 11:09:43;;;;;;;8.88;4.55;;;3.20;99.90;;;;;;5060427;28;20040;-81
2021/01/05 11:12:12;;;;;;;9.05;4.95;;;3.20;99.90;;;;;;5078342;28;20437;-80
2021/01/05 11:14:39;;;;;;;9.57;4.35;;;3.20;99.90;;;;;;5054938;28;20039;-80
2021/01/05 11:17:04;;;;;;;9.65;4.47;;;3.20;99.90;;;;;;5049010;28;20032;-82
2021/01/05 11:19:30;;;;;;;9.73;4.93;;;3.20;99.90;;;;;;5033134;28;20608;-81
2021/01/05 11:21:59;;;;;;;7.38;4.18;;;3.30;99.90;;;;;;5054730;28;20028;-80
2021/01/05 11:24:26;;;;;;;8.85;4.50;;;3.30;99.90;;;;;;5053280;28;20381;-80
2021/01/05 11:26:53;;;;;;;11.77;4.78;;;3.30;99.90;;;;;;5070159;28;20040;-80
2021/01/05 11:29:20;;;;;;;10.07;5.10;;;3.40;99.90;;;;;;5071976;28;20028;-79
2021/01/05 11:31:55;;;;;;;11.93;4.70;;;3.40;99.90;;;;;;5079635;28;20809;-80
2021/01/05 11:34:21;;;;;;;9.57;4.63;;;3.40;99.90;;;;;;5052767;28;20081;-80
2021/01/05 11:36:47;;;;;;;11.75;5.15;;;3.40;99.90;;;;;;5070764;28;20037;-80
2021/01/05 11:39:13;;;;;;;9.20;4.55;;;3.50;99.90;;;;;;5046262;28;20483;-81
2021/01/05 11:41:41;;;;;;;11.85;4.80;;;3.50;99.90;;;;;;5052545;28;20054;-81
2021/01/05 11:44:07;;;;;;;7.60;4.30;;;3.50;99.90;;;;;;5072170;28;20060;-81
2021/01/05 11:46:33;;;;;;;6.78;4.10;;;3.40;99.90;;;;;;5081473;28;20050;-79
2021/01/05 11:48:58;;;;;;;7.50;4.20;;;3.30;99.90;;;;;;5066130;28;20032;-81
2021/01/05 11:51:29;;;;;;;6.55;3.60;;;3.30;99.90;;;;;;5056064;28;20033;-79
2021/01/05 11:53:56;;;;;;;6.47;3.42;;;3.30;99.90;;;;;;5050684;28;20115;-80
2021/01/05 11:56:30;;;;;;;6.47;3.40;;;3.30;99.90;;;;;;5072768;28;20047;-79
2021/01/05 11:58:56;;;;;;;6.88;4.07;;;3.30;99.90;;;;;;5071477;28;20024;-80
2021/01/05 12:01:23;;;;;;;5.93;3.50;;;3.20;99.90;;;;;;5064888;28;20025;-79
2021/01/05 12:03:49;;;;;;;6.72;3.88;;;3.20;99.90;;;;;;5070797;28;20028;-82
2021/01/05 12:06:22;;;;;;;6.18;3.20;;;3.10;99.90;;;;;;5076767;28;20219;-81
2021/01/05 12:08:49;;;;;;;8.13;3.90;;;3.10;99.90;;;;;;5039161;28;20024;-83
2021/01/05 12:11:19;;;;;;;4.60;3.25;;;3.00;99.90;;;;;;5047271;28;20029;-80
2021/01/05 12:13:45;;;;;;;6.35;3.90;;;3.00;99.90;;;;;;5049669;28;20020;-80
2021/01/05 12:16:11;;;;;;;6.70;3.63;;;2.90;99.90;;;;;;5061029;28;20120;-78
2021/01/05 12:18:38;;;;;;;8.90;3.72;;;2.90;99.90;;;;;;5063120;28;20131;-78
2021/01/05 12:21:04;;;;;;;5.47;3.15;;;2.90;99.90;;;;;;5046171;28;20020;-79
2021/01/05 12:23:30;;;;;;;5.07;3.17;;;2.80;99.90;;;;;;5057642;28;20040;-78
2021/01/05 12:25:56;;;;;;;8.43;3.67;;;2.80;99.90;;;;;;5053301;28;20045;-79
2021/01/05 12:28:22;;;;;;;6.55;3.45;;;2.80;99.90;;;;;;5067444;28;20033;-79
2021/01/05 12:30:47;;;;;;;6.95;3.70;;;2.80;99.90;;;;;;5060214;28;20024;-78
2021/01/05 12:33:13;;;;;;;6.88;2.97;;;2.80;99.90;;;;;;5064418;28;20029;-79
2021/01/05 12:35:43;;;;;;;6.35;3.45;;;2.80;99.90;;;;;;5060516;28;20038;-79
2021/01/05 12:38:09;;;;;;;5.55;3.20;;;2.70;99.90;;;;;;5065421;28;20051;-78
2021/01/05 12:40:35;;;;;;;7.45;4.63;;;2.70;99.90;;;;;;5060489;28;20032;-79
2021/01/05 12:43:01;;;;;;;6.53;3.50;;;2.60;99.90;;;;;;5048633;28;20037;-79
2021/01/05 12:45:36;;;;;;;6.78;3.63;;;2.60;99.90;;;;;;5050696;28;20021;-79
2021/01/05 12:48:01;;;;;;;6.88;4.07;;;2.60;99.90;;;;;;5047193;28;20063;-79
2021/01/05 12:50:27;;;;;;;6.68;3.80;;;2.60;99.90;;;;;;5061329;28;20115;-79
2021/01/05 12:52:53;;;;;;;6.43;3.38;;;2.70;99.90;;;;;;5045757;28;20041;-79
2021/01/05 12:55:19;;;;;;;5.15;3.08;;;2.70;99.90;;;;;;5063253;28;20463;-78
2021/01/05 12:57:45;;;;;;;6.90;3.55;;;2.70;99.90;;;;;;5051249;28;20031;-79
2021/01/05 13:00:11;;;;;;;7.78;3.78;;;2.70;99.90;;;;;;5049847;28;20643;-78
2021/01/05 13:02:37;;;;;;;7.03;4.00;;;2.70;99.90;;;;;;5050620;28;20124;-78
2021/01/05 13:05:04;;;;;;;6.28;3.67;;;2.70;99.90;;;;;;5048832;28;20060;-78
2021/01/05 13:07:29;;;;;;;6.13;3.55;;;2.70;99.90;;;;;;5067155;28;20025;-78
2021/01/05 13:09:57;;;;;;;6.05;3.90;;;2.70;99.90;;;;;;5063134;28;20033;-79
2021/01/05 13:12:24;;;;;;;7.70;3.70;;;2.70;99.90;;;;;;5062695;28;20024;-79
2021/01/05 13:14:50;;;;;;;8.18;3.83;;;2.60;99.90;;;;;;5077391;28;20067;-78
2021/01/05 13:17:16;;;;;;;6.07;3.85;;;2.60;99.90;;;;;;5060128;28;20234;-79
2021/01/05 13:19:41;;;;;;;7.70;3.63;;;2.60;99.90;;;;;;5055803;28;20075;-78
2021/01/05 13:22:07;;;;;;;7.47;3.83;;;2.60;99.90;;;;;;5053078;28;20037;-79